KFKR

Frankfort Municipal Airport

Frankfort, Indiana, USA
METAR KFKR 210655Z AUTO 10007KT 10SM CLR 19/18 A3012 RMK AO2 T01920175
Observed Flight Rules
May-21 @ 06:55 UTC (14 minutes ago) Visual Flight Rules
Wind Visibility Clouds
100° at 7 knots 10 miles
  • Clear skies
Temperatures Readings
Current 19°C / 66°F
Dewpoint 18°C / 64°F
Humidity 94%
Altimeter 30.12" Hg
Pressure 1020 hPa
Elevation 262
METAR KFKR 210655Z AUTO 10007KT 10SM CLR 19/18 A3012 RMK AO2 T01920175
Observed Flight Rules
May-21 @ 06:55 UTC
(14 minutes ago)
VFR
Wind Visibility
100° at 7 knots 10 miles
Clouds
  • Clear skies
Temperature Dewpoint
19°C / 66°F 18°C / 64°F
Humidity Altimeter Pressure
94% 30.12" Hg 1020 hPa